createdAt,value
2023-04-29T00:00:58.258Z,11.08
2023-04-29T00:05:01.370Z,11.09
2023-04-29T00:09:05.159Z,11.05
2023-04-29T00:13:07.794Z,11.02
2023-04-29T00:17:12.184Z,11.02
2023-04-29T00:21:14.908Z,10.95
2023-04-29T00:25:17.811Z,10.94
2023-04-29T00:29:20.688Z,10.86
2023-04-29T00:33:25.199Z,10.88
2023-04-29T00:37:28.054Z,10.86
2023-04-29T00:41:31.616Z,10.83
2023-04-29T00:45:34.513Z,10.80
2023-04-29T00:49:38.751Z,10.79
2023-04-29T00:53:41.845Z,10.76
2023-04-29T00:57:44.527Z,10.76
2023-04-29T01:01:48.029Z,10.75
2023-04-29T01:05:59.658Z,10.77
2023-04-29T01:10:07.471Z,10.74
2023-04-29T01:14:10.332Z,10.72
2023-04-29T01:18:19.698Z,10.78
2023-04-29T01:22:24.301Z,10.74
2023-04-29T01:26:32.763Z,10.77
2023-04-29T01:30:48.060Z,10.80
2023-04-29T01:35:00.560Z,10.88
2023-04-29T01:39:10.908Z,10.92
2023-04-29T01:43:16.567Z,10.88
2023-04-29T01:47:23.127Z,10.84
2023-04-29T01:51:29.744Z,10.88
2023-04-29T01:55:33.027Z,10.81
2023-04-29T01:59:50.030Z,10.76
2023-04-29T02:04:13.283Z,10.76
2023-04-29T02:08:16.027Z,10.72
2023-04-29T02:12:20.903Z,10.74
2023-04-29T02:16:25.462Z,10.72
2023-04-29T02:21:01.193Z,10.73
2023-04-29T02:25:04.156Z,10.69
2023-04-29T02:29:07.591Z,10.71
2023-04-29T02:33:11.927Z,10.67
2023-04-29T02:37:15.717Z,10.65
2023-04-29T02:41:18.959Z,10.63
2023-04-29T02:45:24.022Z,10.58
2023-04-29T02:49:28.004Z,10.51
2023-04-29T02:53:30.687Z,10.62
2023-04-29T02:57:34.773Z,10.56
2023-04-29T03:01:38.541Z,10.55
2023-04-29T03:05:42.660Z,10.47
2023-04-29T03:09:45.338Z,10.46
2023-04-29T03:13:48.442Z,10.39
2023-04-29T03:17:51.370Z,10.34
2023-04-29T03:21:55.531Z,10.36
2023-04-29T03:25:58.612Z,10.20
2023-04-29T03:30:02.331Z,10.29
2023-04-29T03:34:07.440Z,10.23
2023-04-29T03:38:15.796Z,10.11
2023-04-29T03:42:19.373Z,10.10
2023-04-29T03:46:22.170Z,10.13
2023-04-29T03:50:25.994Z,10.21
2023-04-29T03:54:30.904Z,10.22
2023-04-29T03:58:33.972Z,10.17
2023-04-29T04:02:37.109Z,10.14
2023-04-29T04:06:40.085Z,10.13
2023-04-29T04:10:44.600Z,10.10
2023-04-29T04:15:11.222Z,10.01
2023-04-29T04:19:14.134Z,9.99
2023-04-29T04:23:20.164Z,10.01
2023-04-29T04:27:24.494Z,9.95
2023-04-29T04:31:27.607Z,9.95
2023-04-29T04:35:31.447Z,9.96
2023-04-29T04:39:34.160Z,10.02
2023-04-29T04:43:39.826Z,10.00
2023-04-29T04:47:48.703Z,9.88
2023-04-29T04:51:59.633Z,9.90
2023-04-29T04:56:02.681Z,9.93
2023-04-29T05:00:09.602Z,9.96
2023-04-29T05:04:12.442Z,9.92
2023-04-29T05:08:15.329Z,9.86
2023-04-29T05:12:23.456Z,9.82
2023-04-29T05:16:27.542Z,9.81
2023-04-29T05:20:31.120Z,9.82
2023-04-29T05:24:36.548Z,9.83
2023-04-29T05:28:39.363Z,9.91
2023-04-29T05:32:45.949Z,9.96
2023-04-29T05:36:52.035Z,10.02
2023-04-29T05:40:55.382Z,9.93
2023-04-29T05:45:00.714Z,9.96
2023-04-29T05:49:04.748Z,9.92
2023-04-29T05:53:07.544Z,9.99
2023-04-29T05:57:10.750Z,10.01
2023-04-29T06:01:13.342Z,10.00
2023-04-29T06:05:17.837Z,10.06
2023-04-29T06:09:41.223Z,10.09
2023-04-29T06:13:45.833Z,10.10
2023-04-29T06:17:50.027Z,10.08
2023-04-29T06:21:54.047Z,10.06
2023-04-29T06:25:57.588Z,10.11
2023-04-29T06:30:00.287Z,10.16
2023-04-29T06:34:03.150Z,10.19
2023-04-29T06:38:09.078Z,10.18
2023-04-29T06:42:31.480Z,10.18
2023-04-29T06:46:52.710Z,10.18
2023-04-29T06:51:03.863Z,10.22
2023-04-29T06:55:09.095Z,10.30
2023-04-29T06:59:12.581Z,10.32
2023-04-29T07:03:15.906Z,10.33
2023-04-29T07:07:18.627Z,10.37
2023-04-29T07:11:24.704Z,10.43
2023-04-29T07:15:28.295Z,10.40
2023-04-29T07:19:32.034Z,10.43
2023-04-29T07:23:34.744Z,10.53
2023-04-29T07:27:39.745Z,10.59
2023-04-29T07:31:42.438Z,10.68
2023-04-29T07:35:45.325Z,10.72
2023-04-29T07:39:48.759Z,10.81
2023-04-29T07:43:52.806Z,10.91
2023-04-29T07:47:55.553Z,10.90
2023-04-29T07:51:58.433Z,11.01
2023-04-29T07:56:05.714Z,11.08
2023-04-29T08:00:11.069Z,11.06
2023-04-29T08:04:23.522Z,11.17
2023-04-29T08:08:40.002Z,11.28
2023-04-29T08:12:42.969Z,11.19
2023-04-29T08:16:47.031Z,11.31
2023-04-29T08:20:50.663Z,11.27
2023-04-29T08:24:53.430Z,11.20
2023-04-29T08:28:56.353Z,11.20
2023-04-29T08:33:00.496Z,11.33
2023-04-29T08:37:03.366Z,11.42
2023-04-29T08:41:09.968Z,11.58
2023-04-29T08:45:17.338Z,11.71
2023-04-29T08:49:21.683Z,11.91
2023-04-29T08:53:24.721Z,12.11
2023-04-29T08:57:29.152Z,12.16
2023-04-29T09:01:32.224Z,12.26
2023-04-29T09:05:36.541Z,12.36
2023-04-29T09:09:40.789Z,12.35
2023-04-29T09:13:43.452Z,12.51
2023-04-29T09:17:47.740Z,12.73
2023-04-29T09:21:57.089Z,12.98
2023-04-29T09:25:59.810Z,13.55
2023-04-29T09:30:02.788Z,13.73
2023-04-29T09:34:05.743Z,13.92
2023-04-29T09:38:14.414Z,14.21
2023-04-29T09:42:17.619Z,14.34
2023-04-29T09:46:20.474Z,14.37
2023-04-29T09:50:23.189Z,14.38
2023-04-29T09:54:29.414Z,14.56
2023-04-29T09:58:37.462Z,14.56
2023-04-29T10:02:43.639Z,14.79
2023-04-29T10:06:49.209Z,14.99
2023-04-29T10:10:57.585Z,15.32
2023-04-29T10:15:04.890Z,15.53
2023-04-29T10:19:11.658Z,16.10
2023-04-29T10:23:14.999Z,16.62
2023-04-29T10:27:21.108Z,16.54
2023-04-29T10:31:26.961Z,16.26
2023-04-29T10:35:29.927Z,16.37
2023-04-29T10:39:43.415Z,16.19
2023-04-29T10:43:47.777Z,16.77
2023-04-29T10:48:15.188Z,17.10
2023-04-29T10:52:18.044Z,16.73
2023-04-29T10:56:20.687Z,16.50
2023-04-29T11:00:28.128Z,16.50
2023-04-29T11:04:32.393Z,16.45
2023-04-29T11:08:39.857Z,16.43
2023-04-29T11:12:42.516Z,16.17
2023-04-29T11:16:51.967Z,16.20
2023-04-29T11:21:15.944Z,16.39
2023-04-29T11:25:18.773Z,16.50
2023-04-29T11:29:23.613Z,16.69
2023-04-29T11:33:28.880Z,16.65
2023-04-29T11:37:34.204Z,16.38
2023-04-29T11:41:37.481Z,16.16
2023-04-29T11:45:41.382Z,16.09
2023-04-29T11:49:45.534Z,16.51
2023-04-29T11:53:48.583Z,16.67
2023-04-29T11:57:52.232Z,16.91
2023-04-29T12:01:54.852Z,16.91
2023-04-29T12:05:59.356Z,16.68
2023-04-29T12:10:02.123Z,16.89
2023-04-29T12:14:06.179Z,16.77
2023-04-29T12:18:09.772Z,16.60
2023-04-29T12:22:14.001Z,16.58
2023-04-29T12:26:17.960Z,16.90
2023-04-29T12:30:21.444Z,17.41
2023-04-29T12:34:27.880Z,17.61
2023-04-29T12:38:32.525Z,17.45
2023-04-29T12:42:35.156Z,17.44
2023-04-29T12:46:38.602Z,17.58
2023-04-29T12:50:41.584Z,17.59
2023-04-29T12:54:45.729Z,17.55
2023-04-29T12:58:48.513Z,17.80
2023-04-29T13:02:51.326Z,17.92
2023-04-29T13:07:00.221Z,18.18
2023-04-29T13:11:04.247Z,18.28
2023-04-29T13:15:09.612Z,18.41
2023-04-29T13:19:28.206Z,18.10
2023-04-29T13:23:35.055Z,17.98
2023-04-29T13:27:39.074Z,17.55
2023-04-29T13:31:43.916Z,17.49
2023-04-29T13:35:46.917Z,17.30
2023-04-29T13:39:56.352Z,16.98
2023-04-29T13:44:02.143Z,17.07
2023-04-29T13:48:12.645Z,17.34
2023-04-29T14:01:01.953Z,17.27
2023-04-29T14:05:06.244Z,17.37
2023-04-29T14:09:09.022Z,17.67
2023-04-29T14:13:11.635Z,17.79
2023-04-29T14:17:16.125Z,18.08
2023-04-29T14:21:18.785Z,18.22
2023-04-29T14:25:22.158Z,17.92
2023-04-29T14:29:24.910Z,17.92
2023-04-29T14:33:28.940Z,17.76
2023-04-29T14:37:31.646Z,17.45
2023-04-29T14:41:34.317Z,17.12
2023-04-29T14:45:37.615Z,17.06
2023-04-29T14:49:42.616Z,16.95
2023-04-29T14:53:45.377Z,16.89
2023-04-29T14:57:48.047Z,16.76
2023-04-29T15:01:50.731Z,16.58
2023-04-29T15:05:55.033Z,16.49
2023-04-29T15:09:57.698Z,16.46
2023-04-29T15:14:00.498Z,16.54
2023-04-29T15:18:03.216Z,16.54
2023-04-29T15:22:07.304Z,16.53
2023-04-29T15:26:10.478Z,16.68
2023-04-29T15:30:14.289Z,16.82
2023-04-29T15:34:16.937Z,16.72
2023-04-29T15:38:21.015Z,16.67
2023-04-29T15:42:23.699Z,16.60
2023-04-29T15:46:27.811Z,16.60
2023-04-29T15:50:30.694Z,16.77
2023-04-29T15:54:34.700Z,16.89
2023-04-29T15:58:37.882Z,16.79
2023-04-29T16:02:40.662Z,16.65
2023-04-29T16:06:43.319Z,16.42
2023-04-29T16:10:47.366Z,16.30
2023-04-29T16:14:50.160Z,16.35
2023-04-29T16:18:52.907Z,16.30
2023-04-29T16:22:55.674Z,16.41
2023-04-29T16:26:59.765Z,16.45
2023-04-29T16:31:02.462Z,16.40
2023-04-29T16:35:05.539Z,16.28
2023-04-29T16:39:08.282Z,16.12
2023-04-29T16:43:14.308Z,16.09
2023-04-29T16:47:19.057Z,16.17
2023-04-29T16:51:22.844Z,16.15
2023-04-29T16:55:25.472Z,16.06
2023-04-29T16:59:29.445Z,16.05
2023-04-29T17:03:32.157Z,16.01
2023-04-29T17:07:35.323Z,16.01
2023-04-29T17:11:37.950Z,15.96
2023-04-29T17:15:41.999Z,15.88
2023-04-29T17:19:45.194Z,15.90
2023-04-29T17:23:48.399Z,15.87
2023-04-29T17:27:51.038Z,15.84
2023-04-29T17:31:59.584Z,15.72
2023-04-29T17:36:03.489Z,15.51
2023-04-29T17:40:07.600Z,15.42
2023-04-29T17:44:10.707Z,15.34
2023-04-29T17:48:18.348Z,15.24
2023-04-29T17:52:21.892Z,15.14
2023-04-29T17:56:24.638Z,15.03
2023-04-29T18:00:27.495Z,14.92
2023-04-29T18:04:31.482Z,14.86
2023-04-29T18:08:34.168Z,14.80
2023-04-29T18:12:36.799Z,14.67
2023-04-29T18:16:39.763Z,14.53
2023-04-29T18:20:45.115Z,14.45
2023-04-29T18:24:48.423Z,14.29
2023-04-29T18:28:51.390Z,14.13
2023-04-29T18:32:54.107Z,14.02
2023-04-29T18:36:58.105Z,13.88
2023-04-29T18:41:00.790Z,13.75
2023-04-29T18:45:03.530Z,13.59
2023-04-29T18:49:06.336Z,13.53
2023-04-29T18:53:10.594Z,13.44
2023-04-29T18:57:13.287Z,13.36
2023-04-29T19:01:16.082Z,13.16
2023-04-29T19:05:19.199Z,13.02
2023-04-29T19:09:23.172Z,12.87
2023-04-29T19:13:26.636Z,12.75
2023-04-29T19:17:29.242Z,12.57
2023-04-29T19:21:32.933Z,12.46
2023-04-29T19:25:37.178Z,12.35
2023-04-29T19:29:40.218Z,12.23
2023-04-29T19:33:42.875Z,12.14
2023-04-29T19:37:45.579Z,12.04
2023-04-29T19:41:49.575Z,11.99
2023-04-29T19:45:52.230Z,12.00
2023-04-29T19:49:55.528Z,11.95
2023-04-29T19:54:01.444Z,11.92
2023-04-29T19:58:06.223Z,11.73
2023-04-29T20:02:08.963Z,11.63
2023-04-29T20:06:12.074Z,11.53
2023-04-29T20:10:15.024Z,11.44
2023-04-29T20:14:19.055Z,11.37
2023-04-29T20:18:22.020Z,11.34
2023-04-29T20:22:24.887Z,11.28
2023-04-29T20:26:27.946Z,11.27
2023-04-29T20:30:32.006Z,11.18
2023-04-29T20:34:36.269Z,11.08
2023-04-29T20:38:38.916Z,11.01
2023-04-29T20:42:41.744Z,10.93
2023-04-29T20:46:45.986Z,10.87
2023-04-29T20:50:49.176Z,10.86
2023-04-29T20:54:51.853Z,10.81
2023-04-29T20:58:56.425Z,10.77
2023-04-29T21:03:01.249Z,10.76
2023-04-29T21:07:04.421Z,10.71
2023-04-29T21:11:07.761Z,10.62
2023-04-29T21:15:11.301Z,10.53
2023-04-29T21:19:15.422Z,10.52
2023-04-29T21:23:18.150Z,10.45
2023-04-29T21:27:21.342Z,10.39
2023-04-29T21:31:24.043Z,10.31
2023-04-29T21:35:28.454Z,10.28
2023-04-29T21:39:32.425Z,10.23
2023-04-29T21:43:35.099Z,10.21
2023-04-29T21:47:38.025Z,10.14
2023-04-29T21:51:42.762Z,10.09
2023-04-29T21:55:45.563Z,10.04
2023-04-29T21:59:49.023Z,10.02
2023-04-29T22:03:51.888Z,10.00
2023-04-29T22:07:57.901Z,9.98
2023-04-29T22:12:02.766Z,9.94
2023-04-29T22:16:06.331Z,9.91
2023-04-29T22:20:11.358Z,9.90
2023-04-29T22:24:15.735Z,9.83
2023-04-29T22:28:18.516Z,9.81
2023-04-29T22:32:21.182Z,9.75
2023-04-29T22:36:23.975Z,9.69
2023-04-29T22:40:28.496Z,9.65
2023-04-29T22:44:31.176Z,9.62
2023-04-29T22:48:33.909Z,9.58
2023-04-29T22:52:36.712Z,9.54
2023-04-29T22:56:40.763Z,9.50
2023-04-29T23:00:44.749Z,9.43
2023-04-29T23:04:47.527Z,9.37
2023-04-29T23:08:50.310Z,9.32
2023-04-29T23:12:54.301Z,9.26
2023-04-29T23:16:57.066Z,9.19
2023-04-29T23:20:59.791Z,9.07
2023-04-29T23:25:02.581Z,8.90
2023-04-29T23:29:06.697Z,8.77
2023-04-29T23:33:09.709Z,8.69
2023-04-29T23:37:14.436Z,8.56
2023-04-29T23:41:17.184Z,8.45
2023-04-29T23:45:21.237Z,8.36
2023-04-29T23:49:23.993Z,8.30
2023-04-29T23:53:26.627Z,8.25
2023-04-29T23:57:29.573Z,8.24
